Time;durP1;ratioP1;P1;durP2;ratioP2;P2;SDS_P1;SDS_P2;PMS_P1;PMS_P2;Temp;Humidity;BMP_temperature;BMP_pressure;BME280_temperature;BME280_humidity;BME280_pressure;Samples;Min_cycle;Max_cycle;Signal;HPM_P1;HPM_P2
2022/06/09 00:00:35;;;;;;;12.73;1.53;;;13.80;99.90;;;14.68;100.00;97566.06;4981594;28;20504;-77
2022/06/09 00:03:11;;;;;;;8.63;1.97;;;13.80;99.90;;;14.59;100.00;97574.28;4979574;28;20472;-77
2022/06/09 00:05:41;;;;;;;4.83;1.53;;;13.80;99.90;;;14.56;100.00;97577.34;4978172;28;20544;-77
2022/06/09 00:08:13;;;;;;;5.20;1.50;;;13.80;99.90;;;14.58;100.00;97572.66;4980865;28;20507;-76
2022/06/09 00:10:51;;;;;;;6.63;1.50;;;13.70;99.90;;;14.56;100.00;97574.72;4982519;28;20441;-77
2022/06/09 00:13:22;;;;;;;9.97;1.67;;;13.60;99.90;;;14.52;100.00;97586.72;4980492;28;20510;-77
2022/06/09 00:15:52;;;;;;;2.37;1.40;;;13.70;99.90;;;14.55;100.00;97586.28;4975972;28;20518;-77
2022/06/09 00:18:22;;;;;;;12.97;1.73;;;13.60;99.90;;;14.54;100.00;97584.66;4979027;28;20475;-77
2022/06/09 00:20:52;;;;;;;3.37;1.50;;;13.70;99.90;;;14.51;100.00;97603.53;4977266;28;20586;-77
2022/06/09 00:23:23;;;;;;;5.37;1.50;;;13.70;99.90;;;14.50;100.00;97583.53;4978344;28;21218;-77
2022/06/09 00:25:52;;;;;;;3.30;1.90;;;13.70;99.90;;;14.50;100.00;97596.69;4979337;28;20486;-77
2022/06/09 00:28:21;;;;;;;4.10;1.67;;;13.70;99.90;;;14.50;100.00;97594.03;4978746;28;20585;-77
2022/06/09 00:30:53;;;;;;;6.13;1.67;;;13.70;99.90;;;14.53;100.00;97601.50;4978791;28;20471;-77
2022/06/09 00:33:24;;;;;;;6.43;2.27;;;13.70;99.90;;;14.55;100.00;97594.16;4979127;28;20470;-76
2022/06/09 00:35:55;;;;;;;3.13;1.57;;;13.70;99.90;;;14.56;100.00;97598.41;4979988;28;20528;-77
2022/06/09 00:38:26;;;;;;;15.70;2.53;;;13.70;99.90;;;14.55;100.00;97607.31;4980253;28;20479;-77
2022/06/09 00:40:59;;;;;;;5.87;1.70;;;13.70;99.90;;;14.53;100.00;97603.31;4978064;28;20468;-77
2022/06/09 00:43:30;;;;;;;2.20;1.57;;;13.70;99.90;;;14.50;100.00;97607.19;4978697;28;20464;-77
2022/06/09 00:46:13;;;;;;;18.20;2.90;;;13.70;99.90;;;14.46;100.00;97608.66;4978361;28;20464;-76
2022/06/09 00:48:48;;;;;;;3.40;1.80;;;13.70;99.90;;;14.47;100.00;97612.88;4977851;28;20538;-77
2022/06/09 00:51:33;;;;;;;1.87;1.50;;;13.70;99.90;;;14.45;100.00;97612.31;4980550;28;20475;-77
2022/06/09 00:54:12;;;;;;;1.90;1.70;;;13.70;99.90;;;14.45;100.00;97616.78;4979104;28;20460;-77
2022/06/09 00:56:49;;;;;;;6.43;2.07;;;13.70;99.90;;;14.47;100.00;97615.50;4976611;28;21038;-77
2022/06/09 00:59:26;;;;;;;2.23;1.57;;;13.60;99.90;;;14.41;100.00;97624.31;4977700;28;20496;-77
2022/06/09 01:01:59;;;;;;;4.20;1.80;;;13.60;99.90;;;14.36;100.00;97629.44;4979599;28;20476;-76
2022/06/09 01:04:32;;;;;;;4.43;1.50;;;13.70;99.90;;;14.37;100.00;97620.50;4981705;28;20467;-77
2022/06/09 01:07:09;;;;;;;5.63;1.73;;;13.70;99.90;;;14.40;100.00;97633.25;4982122;28;20496;-77
2022/06/09 01:09:41;;;;;;;4.97;1.63;;;13.60;99.90;;;14.38;100.00;97632.63;4977934;28;21287;-77
2022/06/09 01:12:27;;;;;;;2.93;1.70;;;13.60;99.90;;;14.39;100.00;97634.25;4977659;28;20467;-77
2022/06/09 01:15:02;;;;;;;7.17;1.63;;;13.60;99.90;;;14.40;100.00;97635.88;4977782;28;20579;-77
2022/06/09 01:17:52;;;;;;;12.63;2.00;;;13.60;99.90;;;14.44;100.00;97636.19;4978290;28;20460;-77
2022/06/09 01:20:38;;;;;;;2.23;1.67;;;13.60;99.90;;;14.38;100.00;97640.53;4980367;28;20556;-76
2022/06/09 01:23:42;;;;;;;9.27;1.50;;;13.60;99.90;;;14.36;100.00;97639.97;4979410;28;20456;-76
2022/06/09 01:27:10;;;;;;;4.40;1.80;;;13.60;99.90;;;14.33;100.00;97652.72;4954776;28;20468;-77
2022/06/09 01:29:50;;;;;;;3.20;1.70;;;13.60;99.90;;;14.28;100.00;97645.47;4976375;28;20463;-76
2022/06/09 01:32:29;;;;;;;4.80;1.60;;;13.60;99.90;;;14.28;100.00;97642.84;4979227;28;20459;-77
2022/06/09 01:35:15;;;;;;;2.30;1.30;;;13.60;99.90;;;14.28;100.00;97636.78;4977711;28;20479;-77
2022/06/09 01:37:49;;;;;;;5.40;1.60;;;13.50;99.90;;;14.26;100.00;97639.66;4976519;28;20463;-76
2022/06/09 01:40:20;;;;;;;4.60;1.73;;;13.50;99.90;;;14.24;100.00;97631.16;4978355;28;20505;-77
2022/06/09 01:42:51;;;;;;;3.23;1.63;;;13.50;99.90;;;14.20;100.00;97637.88;4977051;28;20535;-77
2022/06/09 01:45:27;;;;;;;4.90;1.83;;;13.50;99.90;;;14.21;100.00;97641.31;4976348;28;20468;-77
2022/06/09 01:48:10;;;;;;;3.27;1.67;;;13.40;99.90;;;14.19;100.00;97644.19;4979585;28;21039;-77
2022/06/09 01:50:52;;;;;;;8.73;1.73;;;13.40;99.90;;;14.13;100.00;97637.16;4977105;28;20846;-77
2022/06/09 01:53:31;;;;;;;2.60;1.30;;;13.40;99.90;;;14.14;100.00;97641.38;4976948;28;20482;-77
2022/06/09 01:56:10;;;;;;;4.20;1.70;;;13.40;99.90;;;14.15;100.00;97637.75;4976159;28;20544;-77
2022/06/09 01:58:46;;;;;;;5.17;1.27;;;13.30;99.90;;;14.13;100.00;97639.00;4976633;28;20461;-77
2022/06/09 02:01:22;;;;;;;7.53;1.63;;;13.30;99.90;;;14.11;100.00;97637.38;4978010;28;20467;-77
2022/06/09 02:04:01;;;;;;;7.10;1.60;;;13.30;99.90;;;14.10;100.00;97646.28;4978516;28;20483;-77
2022/06/09 02:06:35;;;;;;;5.53;1.47;;;13.30;99.90;;;14.07;100.00;97638.03;4979487;28;20821;-77
2022/06/09 02:09:06;;;;;;;2.70;1.10;;;13.30;99.90;;;14.07;100.00;97646.72;4981946;28;20912;-77
2022/06/09 02:11:46;;;;;;;6.17;1.43;;;13.20;99.90;;;14.00;100.00;97646.00;4980295;28;20507;-77
2022/06/09 02:14:18;;;;;;;5.07;1.57;;;13.20;99.90;;;13.97;100.00;97646.44;4979879;28;20558;-77
2022/06/09 02:16:48;;;;;;;6.80;1.33;;;13.20;99.90;;;13.91;100.00;97644.69;4980364;28;20980;-77
2022/06/09 02:19:21;;;;;;;3.30;1.47;;;13.10;99.90;;;13.90;100.00;97647.50;4980056;28;20470;-77
2022/06/09 02:21:52;;;;;;;4.90;2.00;;;13.10;99.90;;;13.85;100.00;97653.41;4981090;28;20508;-77
2022/06/09 02:24:21;;;;;;;7.33;1.80;;;13.10;99.90;;;13.83;100.00;97644.94;4976167;28;20468;-77
2022/06/09 02:26:51;;;;;;;2.40;1.30;;;13.10;99.90;;;13.84;100.00;97653.66;4977145;28;20462;-77
2022/06/09 02:29:21;;;;;;;3.33;1.50;;;13.00;99.90;;;13.82;100.00;97653.03;4976232;28;20526;-77
2022/06/09 02:31:51;;;;;;;3.30;1.40;;;13.00;99.90;;;13.77;100.00;97651.09;4975409;28;20472;-77
2022/06/09 02:34:22;;;;;;;4.27;2.07;;;13.00;99.90;;;13.74;100.00;97655.97;4976341;28;20582;-77
2022/06/09 02:36:51;;;;;;;11.03;1.30;;;13.00;99.90;;;13.71;100.00;97659.03;4980295;28;20530;-77
2022/06/09 02:39:22;;;;;;;3.60;1.50;;;13.00;99.90;;;13.72;100.00;97650.91;4976216;28;20472;-77
2022/06/09 02:41:52;;;;;;;6.30;1.70;;;12.90;99.90;;;13.70;100.00;97660.03;4976592;28;20527;-77
2022/06/09 02:44:22;;;;;;;1.87;1.50;;;12.80;99.90;;;13.63;100.00;97654.03;4975213;28;20552;-77
2022/06/09 02:46:51;;;;;;;3.30;1.20;;;12.80;99.90;;;13.60;100.00;97663.97;4976152;28;20528;-77
2022/06/09 02:49:22;;;;;;;4.20;1.37;;;12.80;99.90;;;13.60;100.00;97656.09;4976751;28;20504;-77
2022/06/09 02:51:54;;;;;;;3.77;1.70;;;12.90;99.90;;;13.58;100.00;97658.13;4974156;28;20954;-77
2022/06/09 02:54:25;;;;;;;4.07;1.77;;;12.70;99.90;;;13.62;100.00;97663.75;4978772;28;20471;-77
2022/06/09 02:56:55;;;;;;;4.73;1.70;;;12.70;99.90;;;13.58;100.00;97662.56;4976023;28;21047;-77
2022/06/09 02:59:26;;;;;;;11.83;1.60;;;12.70;99.90;;;13.55;100.00;97669.06;4977180;28;20869;-77
2022/06/09 03:01:56;;;;;;;2.23;1.40;;;12.70;99.90;;;13.55;100.00;97669.06;4976487;28;20878;-77
2022/06/09 03:04:28;;;;;;;1.97;1.47;;;12.60;99.90;;;13.55;100.00;97653.28;4975027;28;21014;-77
2022/06/09 03:06:58;;;;;;;2.70;1.50;;;12.60;99.90;;;13.56;100.00;97654.09;4978519;28;20487;-77
2022/06/09 03:09:29;;;;;;;5.77;1.57;;;12.60;99.90;;;13.54;100.00;97656.94;4978128;28;20494;-76
2022/06/09 03:11:59;;;;;;;10.53;5.33;;;12.60;99.90;;;13.48;100.00;97657.78;4996608;28;20477;-77
2022/06/09 03:14:30;;;;;;;3.10;1.50;;;12.60;99.90;;;13.42;100.00;97660.47;4979104;28;20959;-77
2022/06/09 03:17:00;;;;;;;2.40;1.50;;;12.60;99.90;;;13.40;100.00;97663.31;4978405;28;20818;-77
2022/06/09 03:19:31;;;;;;;3.90;1.53;;;12.50;99.90;;;13.36;100.00;97662.13;4977601;28;21060;-77
2022/06/09 03:22:01;;;;;;;7.50;1.70;;;12.60;99.90;;;13.32;100.00;97663.59;4979248;28;20539;-87
2022/06/09 03:24:32;;;;;;;4.30;2.10;;;12.50;99.90;;;13.30;100.00;97665.63;4980639;28;20511;-77
2022/06/09 03:27:03;;;;;;;3.80;1.50;;;12.50;99.90;;;13.25;100.00;97667.28;4974288;28;20479;-77
2022/06/09 03:29:33;;;;;;;2.03;1.70;;;12.60;99.90;;;13.21;100.00;97677.41;4980288;28;20501;-77
2022/06/09 03:32:04;;;;;;;3.70;1.30;;;12.50;99.90;;;13.23;100.00;97680.59;4979207;28;20468;-77
2022/06/09 03:34:36;;;;;;;9.10;1.57;;;12.40;99.90;;;13.20;100.00;97678.41;4986142;28;20465;-76
2022/06/09 03:37:06;;;;;;;11.87;1.77;;;12.40;99.90;;;13.21;100.00;97687.91;4981897;28;20795;-77
2022/06/09 03:39:36;;;;;;;4.20;1.30;;;12.40;99.90;;;13.18;100.00;97682.28;4983639;28;20444;-77
2022/06/09 03:42:06;;;;;;;5.60;1.47;;;12.40;99.90;;;13.19;100.00;97686.53;4981107;28;20448;-77
2022/06/09 03:44:36;;;;;;;2.67;1.30;;;12.40;99.90;;;13.16;100.00;97687.72;4982336;28;20812;-77
2022/06/09 03:47:07;;;;;;;16.60;1.60;;;12.40;99.90;;;13.19;100.00;97694.41;4979946;28;20901;-77
2022/06/09 03:49:39;;;;;;;5.13;1.73;;;12.40;99.90;;;13.18;100.00;97690.97;4982669;28;20527;-77
2022/06/09 03:52:08;;;;;;;3.03;1.20;;;12.40;99.90;;;13.18;100.00;97688.34;4980506;28;21039;-81
2022/06/09 03:54:39;;;;;;;7.87;3.03;;;12.40;99.90;;;13.14;100.00;97692.41;4996189;28;20468;-76
2022/06/09 03:57:11;;;;;;;3.70;1.63;;;12.40;99.90;;;13.15;100.00;97693.19;4980463;28;20819;-77
2022/06/09 03:59:42;;;;;;;4.20;1.47;;;12.40;99.90;;;13.14;100.00;97694.22;4979986;28;20483;-77
2022/06/09 04:02:12;;;;;;;3.00;1.57;;;12.40;99.90;;;13.16;100.00;97700.84;4981611;28;20467;-77
2022/06/09 04:04:44;;;;;;;7.40;2.00;;;12.40;99.90;;;13.14;100.00;97702.91;4982442;28;20479;-77
2022/06/09 04:07:14;;;;;;;3.07;1.70;;;12.40;99.90;;;13.12;100.00;97699.66;4983574;28;20440;-77
2022/06/09 04:09:45;;;;;;;1.93;1.80;;;12.40;99.90;;;13.09;100.00;97705.34;4986209;28;20495;-77
2022/06/09 04:12:14;;;;;;;2.83;1.70;;;12.40;99.90;;;13.11;100.00;97703.31;4980016;28;20905;-77
2022/06/09 04:14:44;;;;;;;4.63;2.20;;;12.40;99.90;;;13.16;100.00;97705.28;4980394;28;20833;-77
2022/06/09 04:17:14;;;;;;;4.87;1.77;;;12.40;99.90;;;13.17;100.00;97710.34;4979995;28;20496;-77
2022/06/09 04:19:46;;;;;;;31.20;15.10;;;12.40;99.90;;;13.17;100.00;97710.34;4984269;28;20463;-88
2022/06/09 04:22:17;;;;;;;6.83;2.83;;;12.40;99.90;;;13.19;100.00;97716.19;4982150;28;20629;-77
2022/06/09 04:24:47;;;;;;;5.40;1.70;;;12.40;99.90;;;13.18;100.00;97714.59;4980910;28;20437;-77
2022/06/09 04:27:17;;;;;;;9.33;1.80;;;12.40;99.90;;;13.22;100.00;97720.22;4978421;28;20553;-77
2022/06/09 04:29:47;;;;;;;9.17;2.53;;;12.50;99.90;;;13.26;100.00;97721.41;4980759;28;20496;-77
2022/06/09 04:32:18;;;;;;;3.40;1.70;;;12.50;99.90;;;13.31;100.00;97716.31;4983490;28;20463;-77
2022/06/09 04:34:50;;;;;;;9.43;1.90;;;12.50;99.90;;;13.36;100.00;97730.41;4983933;28;20816;-77
2022/06/09 04:37:20;;;;;;;14.03;2.27;;;12.60;99.90;;;13.40;100.00;97734.22;4981600;28;20456;-77
2022/06/09 04:39:51;;;;;;;6.80;1.90;;;12.60;99.90;;;13.42;100.00;97736.66;4983000;28;20479;-77
2022/06/09 04:42:21;;;;;;;6.60;1.67;;;12.60;99.90;;;13.47;100.00;97735.00;4983560;28;20449;-77
2022/06/09 04:44:51;;;;;;;4.23;1.63;;;12.60;99.90;;;13.51;100.00;97746.69;4979972;28;21095;-77
2022/06/09 04:47:21;;;;;;;3.50;1.60;;;12.70;99.90;;;13.57;100.00;97750.31;4982789;28;20515;-77
2022/06/09 04:49:53;;;;;;;3.73;1.77;;;12.80;99.90;;;13.59;100.00;97738.56;4982105;28;21009;-77
2022/06/09 04:52:24;;;;;;;3.80;2.00;;;12.80;99.90;;;13.64;100.00;97750.25;4982490;28;20433;-77
2022/06/09 04:54:54;;;;;;;9.67;2.03;;;12.80;99.90;;;13.65;100.00;97747.38;4983246;28;20555;-77
2022/06/09 04:57:24;;;;;;;6.03;1.77;;;12.80;99.90;;;13.68;100.00;97752.22;4983828;28;21025;-77
2022/06/09 04:59:55;;;;;;;13.60;1.90;;;12.90;99.90;;;13.73;100.00;97754.22;4984281;28;20448;-78
2022/06/09 05:02:24;;;;;;;5.33;1.83;;;12.90;99.90;;;13.76;100.00;97759.03;4980753;28;20982;-77
2022/06/09 05:04:56;;;;;;;5.53;2.30;;;12.90;99.90;;;13.81;100.00;97765.28;4981330;28;21580;-77
2022/06/09 05:07:27;;;;;;;11.40;1.90;;;13.00;99.90;;;13.82;100.00;97764.25;4983970;28;20829;-77
2022/06/09 05:09:57;;;;;;;13.90;2.03;;;13.10;99.90;;;13.79;100.00;97772.56;4981627;28;20487;-77
2022/06/09 05:12:27;;;;;;;12.30;2.23;;;13.10;99.90;;;13.78;100.00;97770.16;4982571;28;20479;-77
2022/06/09 05:15:00;;;;;;;13.67;2.10;;;13.20;99.90;;;13.81;100.00;97777.59;4981542;28;20467;-77
2022/06/09 05:17:29;;;;;;;4.83;1.83;;;13.20;99.90;;;13.86;100.00;97786.44;4982978;28;20976;-77
2022/06/09 05:20:00;;;;;;;4.43;1.70;;;13.20;99.90;;;13.89;100.00;97783.38;4984338;28;20445;-77
2022/06/09 05:22:32;;;;;;;14.67;2.27;;;13.20;99.90;;;13.93;100.00;97791.66;4982998;28;20480;-76
2022/06/09 05:25:03;;;;;;;14.80;2.53;;;13.20;99.90;;;13.95;100.00;97800.16;4981993;28;20468;-77
2022/06/09 05:27:33;;;;;;;5.00;1.83;;;13.30;99.90;;;13.95;100.00;97806.19;4982273;28;20476;-77
2022/06/09 05:30:01;;;;;;;5.30;1.70;;;13.30;99.90;;;13.98;100.00;97804.97;4983109;28;21495;-77
2022/06/09 05:32:31;;;;;;;9.73;1.90;;;13.30;99.90;;;14.01;100.00;97813.25;4983559;28;20873;-77
2022/06/09 05:35:02;;;;;;;5.03;1.87;;;13.30;99.90;;;14.02;100.00;97817.47;4983571;28;20982;-78
2022/06/09 05:45:49;;;;;;;9.27;1.80;;;13.40;99.90;;;14.01;100.00;97826.38;4981079;28;21062;-77
2022/06/09 05:48:19;;;;;;;6.77;1.80;;;13.40;99.90;;;14.01;100.00;97822.94;4982047;28;20479;-77
2022/06/09 05:50:52;;;;;;;11.80;2.30;;;13.40;99.90;;;14.07;100.00;97841.31;4983682;28;20491;-77
2022/06/09 05:53:22;;;;;;;11.57;2.77;;;13.40;99.90;;;14.07;100.00;97840.50;4982006;28;20511;-78
2022/06/09 05:55:52;;;;;;;8.60;1.73;;;13.30;99.90;;;14.11;100.00;97844.31;4980670;28;20467;-77
2022/06/09 05:58:22;;;;;;;5.00;2.43;;;13.30;99.90;;;14.07;100.00;97849.19;4981049;28;20472;-77
2022/06/09 06:00:52;;;;;;;5.23;1.60;;;13.40;99.90;;;14.11;100.00;97858.25;4982346;28;20474;-77
2022/06/09 06:03:22;;;;;;;5.80;1.60;;;13.40;99.90;;;14.13;100.00;97855.41;4980665;28;20461;-77
2022/06/09 06:08:41;;;;;;;5.23;1.43;;;13.40;99.90;;;14.13;100.00;97859.88;4982541;28;20463;-78
2022/06/09 06:11:11;;;;;;;6.40;1.80;;;13.40;99.90;;;14.07;100.00;97869.41;4981954;28;20487;-77
2022/06/09 06:13:42;;;;;;;15.10;2.10;;;13.40;99.90;;;14.08;100.00;97873.66;4982941;28;20800;-77
2022/06/09 06:16:12;;;;;;;5.57;2.03;;;13.50;99.90;;;14.11;100.00;97871.41;4980347;28;20464;-78
2022/06/09 06:19:13;;;;;;;6.67;1.80;;;13.50;99.90;;;14.17;100.00;97880.25;4981940;28;20499;-77
2022/06/09 06:21:51;;;;;;;7.23;2.00;;;13.50;99.90;;;14.20;100.00;97882.47;4980354;28;20492;-77
2022/06/09 06:24:24;;;;;;;6.13;2.63;;;13.50;99.90;;;14.21;100.00;97884.09;4984466;28;20498;-78
2022/06/09 06:26:54;;;;;;;4.47;1.50;;;13.50;99.90;;;14.22;100.00;97880.44;4981641;28;20470;-78
2022/06/09 06:29:27;;;;;;;5.67;1.80;;;13.60;99.90;;;14.25;100.00;97905.50;4981489;28;20994;-77
2022/06/09 06:31:55;;;;;;;6.30;2.30;;;13.60;99.90;;;14.25;100.00;97895.78;4982825;28;20496;-77
2022/06/09 06:34:26;;;;;;;7.73;1.97;;;13.60;99.90;;;14.28;100.00;97905.88;4979848;28;20953;-76
2022/06/09 06:36:56;;;;;;;11.80;2.37;;;13.50;99.90;;;14.32;100.00;97907.06;4980963;28;20827;-77
2022/06/09 06:39:26;;;;;;;5.20;1.70;;;13.50;99.90;;;14.33;100.00;97908.69;4980502;28;20464;-77
2022/06/09 06:41:55;;;;;;;4.50;1.73;;;13.60;99.90;;;14.31;100.00;97910.72;4983467;28;20546;-77
2022/06/09 06:44:25;;;;;;;11.43;2.00;;;13.60;99.90;;;14.32;100.00;97912.34;4981507;28;20875;-77
2022/06/09 06:46:55;;;;;;;3.93;1.40;;;13.60;99.90;;;14.34;100.00;97920.03;4980891;28;20457;-78
2022/06/09 06:49:26;;;;;;;8.83;2.90;;;13.60;99.90;;;14.31;100.00;97921.22;4980635;28;20456;-77
2022/06/09 06:51:58;;;;;;;6.67;1.97;;;13.60;99.90;;;14.29;100.00;97920.66;4982072;28;20500;-77
2022/06/09 06:54:28;;;;;;;6.43;2.00;;;13.60;99.90;;;14.33;100.00;97921.84;4982308;28;20444;-77
2022/06/09 06:56:58;;;;;;;5.90;2.67;;;13.60;99.90;;;14.36;100.00;97920.63;4980030;28;20456;-77
2022/06/09 06:59:29;;;;;;;8.63;2.20;;;13.70;99.90;;;14.43;100.00;97927.47;4979939;28;20452;-77
2022/06/09 07:01:59;;;;;;;6.40;1.60;;;13.70;99.90;;;14.46;100.00;97924.41;4981328;28;20508;-77
2022/06/09 07:04:29;;;;;;;3.00;1.70;;;13.80;99.90;;;14.50;100.00;97922.94;4981723;28;20476;-77
2022/06/09 07:07:06;;;;;;;4.57;1.60;;;13.80;99.90;;;14.53;100.00;97929.59;4981025;28;20471;-78
2022/06/09 07:09:37;;;;;;;13.00;1.83;;;13.90;99.90;;;14.56;100.00;97932.63;4983742;28;20476;-78
2022/06/09 07:12:08;;;;;;;6.17;1.97;;;13.90;99.90;;;14.55;100.00;97940.72;4983528;28;21021;-78
2022/06/09 07:14:39;;;;;;;4.50;1.47;;;13.90;99.90;;;14.49;100.00;97937.13;4984389;28;20469;-77
2022/06/09 07:17:10;;;;;;;5.20;1.80;;;14.00;99.90;;;14.53;100.00;97938.31;4985140;28;20444;-77
2022/06/09 07:19:39;;;;;;;7.70;1.73;;;14.10;99.90;;;14.56;100.00;97935.25;4985491;28;20541;-77
2022/06/09 07:22:11;;;;;;;8.50;1.80;;;14.00;99.90;;;14.63;100.00;97934.38;4985125;28;20487;-77
2022/06/09 07:24:42;;;;;;;7.17;1.70;;;14.00;99.90;;;14.68;100.00;97937.19;4982524;28;20504;-77
2022/06/09 07:27:12;;;;;;;4.83;1.70;;;14.00;99.90;;;14.70;100.00;97930.69;4986126;28;20475;-77
2022/06/09 07:29:43;;;;;;;6.90;1.60;;;14.20;99.90;;;14.73;100.00;97929.44;4983042;28;21000;-77
2022/06/09 07:32:14;;;;;;;3.80;2.03;;;14.20;99.90;;;14.68;100.00;97924.84;4983535;28;21017;-77
2022/06/09 07:34:45;;;;;;;8.30;2.10;;;14.20;99.90;;;14.66;100.00;97929.50;4983847;28;20459;-77
2022/06/09 07:37:19;;;;;;;12.37;2.23;;;14.30;99.90;;;14.64;100.00;97936.00;4983760;28;20496;-77
2022/06/09 07:39:49;;;;;;;5.23;1.73;;;14.10;99.90;;;14.70;100.00;97940.38;4983732;28;20476;-77
2022/06/09 07:42:20;;;;;;;3.47;1.67;;;14.20;99.90;;;14.77;100.00;97938.50;4983544;28;20470;-77
2022/06/09 07:44:51;;;;;;;6.27;1.73;;;14.20;99.90;;;14.83;100.00;97942.91;4984933;28;20469;-77
2022/06/09 07:47:20;;;;;;;14.10;2.50;;;14.20;99.90;;;14.87;100.00;97946.72;4983016;28;20480;-77
2022/06/09 07:49:51;;;;;;;6.13;2.10;;;14.30;99.90;;;14.89;100.00;97944.69;4981387;28;20982;-77
2022/06/09 07:52:24;;;;;;;10.57;2.70;;;14.40;99.90;;;14.93;100.00;97964.28;4981559;28;20487;-77
2022/06/09 07:54:55;;;;;;;6.27;1.93;;;14.40;99.90;;;15.04;100.00;97958.31;4985208;28;20456;-77
2022/06/09 07:57:28;;;;;;;6.70;2.20;;;14.40;99.90;;;15.12;100.00;97963.31;4982317;28;20459;-77
2022/06/09 07:59:59;;;;;;;4.50;1.60;;;14.50;99.90;;;15.21;100.00;97959.34;4985494;28;20457;-77
2022/06/09 08:02:30;;;;;;;4.83;2.00;;;14.60;99.90;;;15.28;100.00;97954.81;4983101;28;20589;-77
2022/06/09 08:05:01;;;;;;;3.87;1.80;;;14.80;99.90;;;15.26;100.00;97963.97;4985124;28;20483;-76
2022/06/09 08:07:33;;;;;;;8.17;2.10;;;14.80;99.90;;;15.29;100.00;97956.44;4984869;28;20486;-77
2022/06/09 08:10:04;;;;;;;9.67;2.40;;;14.80;99.90;;;15.31;100.00;97957.00;4984669;28;20500;-76
2022/06/09 08:12:33;;;;;;;8.27;1.90;;;14.80;99.90;;;15.32;100.00;97961.25;4981418;28;20917;-77
2022/06/09 08:15:03;;;;;;;3.10;1.73;;;14.80;99.90;;;15.34;100.00;97963.69;4983837;28;20468;-77
2022/06/09 08:17:33;;;;;;;3.00;1.80;;;14.80;99.90;;;15.44;100.00;97956.09;4984717;28;20954;-77
2022/06/09 08:20:03;;;;;;;6.20;2.23;;;14.90;99.90;;;15.50;100.00;97966.56;4983791;28;20465;-77
2022/06/09 08:22:40;;;;;;;5.87;2.23;;;14.90;99.90;;;15.53;100.00;97966.13;4982364;28;20471;-77
2022/06/09 08:25:12;;;;;;;6.27;1.90;;;15.00;99.90;;;15.54;100.00;97961.66;4984654;28;20475;-77
2022/06/09 08:27:48;;;;;;;3.17;1.80;;;15.10;99.90;;;15.54;100.00;97970.38;4984247;28;20486;-77
2022/06/09 08:30:18;;;;;;;7.40;1.97;;;14.90;99.90;;;15.61;100.00;97978.22;4984436;28;20455;-77
2022/06/09 08:32:49;;;;;;;4.30;2.13;;;15.10;99.90;;;15.58;100.00;97971.53;4983130;28;20492;-77
2022/06/09 08:35:21;;;;;;;5.40;2.00;;;15.10;99.90;;;15.55;100.00;97982.53;4984889;28;20456;-77
2022/06/09 08:37:52;;;;;;;4.27;2.40;;;15.10;99.90;;;15.55;100.00;97998.34;4982711;28;20464;-77
2022/06/09 08:40:31;;;;;;;2.93;1.60;;;15.20;99.90;;;15.60;100.00;97993.22;4984265;28;20547;-77
2022/06/09 08:43:30;;;;;;;8.20;2.07;;;15.20;99.90;;;15.58;100.00;98005.81;4982469;28;20468;-77
2022/06/09 08:46:18;;;;;;;4.73;1.80;;;15.10;99.90;;;15.65;100.00;98010.22;4984092;28;20440;-77
2022/06/09 08:48:51;;;;;;;5.53;1.97;;;15.10;99.90;;;15.65;100.00;98018.94;4983130;28;20459;-78
2022/06/09 08:51:35;;;;;;;5.87;1.87;;;15.20;99.90;;;15.60;100.00;98019.59;4981108;28;20459;-77
2022/06/09 08:54:16;;;;;;;10.00;2.20;;;15.10;99.90;;;15.68;100.00;98022.94;4985042;28;20487;-77
2022/06/09 08:56:48;;;;;;;5.13;2.03;;;15.20;99.90;;;15.66;100.00;98025.00;4984879;28;20474;-77
2022/06/09 08:59:25;;;;;;;11.13;2.30;;;15.20;99.90;;;15.73;100.00;98025.72;4982829;28;20460;-77
2022/06/09 09:02:01;;;;;;;7.63;2.10;;;15.30;99.90;;;15.77;100.00;98029.53;4982617;28;21002;-77
2022/06/09 09:04:40;;;;;;;5.73;1.93;;;15.20;99.90;;;15.83;100.00;98018.91;4982851;28;20510;-77
2022/06/09 09:07:25;;;;;;;4.43;1.80;;;15.30;99.90;;;15.93;100.00;98015.78;4983336;28;20561;-77
2022/06/09 09:10:01;;;;;;;11.80;1.90;;;15.40;99.90;;;16.02;100.00;98027.63;4983983;28;20458;-78
2022/06/09 09:12:46;;;;;;;8.60;2.20;;;15.60;99.90;;;16.04;100.00;98022.91;4982569;28;20489;-77
2022/06/09 09:15:25;;;;;;;4.17;1.77;;;15.50;99.90;;;16.12;100.00;98027.91;4983067;28;20456;-77
2022/06/09 09:18:20;;;;;;;9.60;2.10;;;15.60;99.90;;;16.18;100.00;98023.56;4983394;28;20451;-77
2022/06/09 09:21:03;;;;;;;6.67;3.70;;;15.60;99.90;;;16.24;100.00;98018.22;4983650;28;20499;-77
2022/06/09 09:23:42;;;;;;;5.97;2.17;;;15.80;99.90;;;16.26;100.00;98021.41;4982721;28;20539;-77
2022/06/09 09:26:27;;;;;;;7.47;2.00;;;15.80;99.90;;;16.30;100.00;98027.06;4983296;28;20444;-77
2022/06/09 09:29:10;;;;;;;5.27;1.97;;;15.80;99.90;;;16.38;100.00;98032.81;4981703;28;20471;-77
2022/06/09 09:31:51;;;;;;;8.70;2.30;;;15.90;99.90;;;16.44;100.00;98031.94;4982215;28;20986;-77
2022/06/09 09:34:24;;;;;;;5.53;1.87;;;16.00;99.90;;;16.46;100.00;98032.50;4981459;28;20473;-77
2022/06/09 09:37:02;;;;;;;12.37;2.70;;;16.00;99.90;;;16.45;100.00;98041.44;4983533;28;20906;-78
2022/06/09 09:39:46;;;;;;;15.70;5.23;;;16.00;99.90;;;16.46;100.00;98040.41;4981655;28;20461;-77
2022/06/09 09:42:21;;;;;;;16.37;2.70;;;16.00;99.90;;;16.50;100.00;98046.88;4980964;28;20518;-77
2022/06/09 09:45:08;;;;;;;16.17;4.13;;;16.00;99.90;;;16.55;100.00;98047.03;4980613;28;20465;-77
2022/06/09 09:47:48;;;;;;;13.03;2.87;;;16.00;99.90;;;16.57;100.00;98049.44;4982336;28;20967;-77
2022/06/09 09:50:29;;;;;;;4.53;2.20;;;16.00;99.90;;;16.56;100.00;98047.81;4980984;28;20460;-77
2022/06/09 09:53:04;;;;;;;8.87;2.47;;;16.00;99.90;;;16.60;100.00;98049.00;4982373;28;20483;-77
2022/06/09 09:55:41;;;;;;;5.90;2.03;;;16.10;99.90;;;16.57;100.00;98060.81;4982973;28;20475;-77
2022/06/09 09:58:33;;;;;;;7.40;2.40;;;16.10;99.90;;;16.60;100.00;98063.00;4983130;28;20451;-77
2022/06/09 10:01:07;;;;;;;19.37;2.63;;;16.10;99.90;;;16.63;100.00;98072.31;4982784;28;20857;-77
2022/06/09 10:10:28;;;;;;;8.77;2.03;;;16.30;99.90;;;16.72;100.00;98089.47;4981303;28;20453;-77
2022/06/09 10:12:59;;;;;;;4.50;1.80;;;16.30;99.90;;;16.79;100.00;98087.53;4982301;28;20525;-76
2022/06/09 10:15:50;;;;;;;10.67;2.53;;;16.40;99.90;;;16.90;100.00;98096.53;4984336;28;21370;-77
2022/06/09 10:18:23;;;;;;;9.20;2.27;;;16.40;99.90;;;17.01;100.00;98098.38;4982445;28;20456;-77
2022/06/09 10:21:13;;;;;;;5.37;2.63;;;16.40;99.90;;;17.06;100.00;98096.66;4982096;28;20479;-76
2022/06/09 10:23:54;;;;;;;5.30;2.20;;;16.40;99.90;;;17.06;100.00;98101.94;4980954;28;20955;-77
2022/06/09 10:26:29;;;;;;;9.20;2.00;;;16.50;99.90;;;17.01;100.00;98093.06;4980853;28;20467;-77
2022/06/09 10:29:08;;;;;;;8.87;2.00;;;16.50;99.90;;;17.00;100.00;98100.22;4979878;28;20475;-77
2022/06/09 10:31:50;;;;;;;8.43;2.23;;;16.40;99.90;;;17.10;100.00;98097.03;4981080;28;21020;-77
2022/06/09 10:34:36;;;;;;;6.03;1.90;;;16.60;99.90;;;17.16;100.00;98092.66;4982417;28;20489;-77
2022/06/09 10:37:25;;;;;;;6.77;1.77;;;16.50;99.90;;;17.21;100.00;98093.59;4980568;28;20541;-77
2022/06/09 10:40:02;;;;;;;7.07;2.20;;;16.50;99.90;;;17.23;100.00;98090.72;4982339;28;20467;-77
2022/06/09 10:42:39;;;;;;;11.90;1.93;;;16.80;99.90;;;17.32;100.00;98095.41;4982192;28;20464;-77
2022/06/09 10:45:38;;;;;;;4.83;1.90;;;16.80;99.90;;;17.48;100.00;98099.25;4984488;28;20460;-77
2022/06/09 10:57:20;;;;;;;4.47;1.80;;;17.10;99.90;;;17.60;100.00;98094.78;4983983;28;20495;-77
2022/06/09 11:00:00;;;;;;;5.97;1.90;;;17.10;99.90;;;17.62;100.00;98100.66;4984522;28;20482;-77
2022/06/09 11:02:33;;;;;;;7.43;1.93;;;17.10;99.90;;;17.65;100.00;98099.38;4983967;28;20461;-77
2022/06/09 11:05:07;;;;;;;6.60;2.30;;;17.10;99.90;;;17.65;100.00;98100.19;4983019;28;20551;-77